createdAt,value
2023-01-30T00:01:30.543Z,100.00
2023-01-30T00:03:57.714Z,99.76
2023-01-30T00:06:25.371Z,99.45
2023-01-30T00:09:01.991Z,99.82
2023-01-30T00:11:36.651Z,98.12
2023-01-30T00:14:06.315Z,96.50
2023-01-30T00:16:37.419Z,95.13
2023-01-30T00:19:07.427Z,93.54
2023-01-30T00:21:40.241Z,92.90
2023-01-30T00:24:08.009Z,91.36
2023-01-30T00:26:35.412Z,90.47
2023-01-30T00:29:02.988Z,89.34
2023-01-30T00:31:31.678Z,88.49
2023-01-30T00:33:59.185Z,87.56
2023-01-30T00:36:27.180Z,86.54
2023-01-30T00:38:57.941Z,86.21
2023-01-30T00:41:45.291Z,85.52
2023-01-30T00:44:31.308Z,84.93
2023-01-30T00:47:08.890Z,84.09
2023-01-30T00:49:37.895Z,84.00
2023-01-30T00:52:05.709Z,83.53
2023-01-30T00:54:33.585Z,82.52
2023-01-30T00:57:01.270Z,82.31
2023-01-30T00:59:28.717Z,80.76
2023-01-30T01:01:56.178Z,81.09
2023-01-30T01:04:23.725Z,80.40
2023-01-30T01:06:51.695Z,80.16
2023-01-30T01:09:20.085Z,80.23
2023-01-30T01:11:47.447Z,80.08
2023-01-30T01:14:14.987Z,80.05
2023-01-30T01:16:42.340Z,80.41
2023-01-30T01:19:09.659Z,79.81
2023-01-30T01:21:36.888Z,79.41
2023-01-30T01:24:07.175Z,79.06
2023-01-30T01:26:34.886Z,79.05
2023-01-30T01:29:03.345Z,78.95
2023-01-30T01:31:31.107Z,78.78
2023-01-30T01:33:58.733Z,79.02
2023-01-30T01:39:13.709Z,79.34
2023-01-30T01:41:41.167Z,78.92
2023-01-30T01:44:10.986Z,78.87
2023-01-30T01:46:59.640Z,79.35
2023-01-30T01:49:34.995Z,79.88
2023-01-30T01:52:13.864Z,79.50
2023-01-30T01:54:56.190Z,79.65
2023-01-30T01:57:33.852Z,79.70
2023-01-30T02:00:12.504Z,79.41
2023-01-30T02:02:47.128Z,79.47
2023-01-30T02:05:18.050Z,79.76
2023-01-30T02:08:18.275Z,80.07
2023-01-30T02:10:54.581Z,79.67
2023-01-30T02:13:22.371Z,79.87
2023-01-30T02:15:50.534Z,80.27
2023-01-30T02:18:19.256Z,79.98
2023-01-30T02:21:21.099Z,80.27
2023-01-30T02:24:17.396Z,80.51
2023-01-30T02:26:44.548Z,80.47
2023-01-30T02:30:05.999Z,80.99
2023-01-30T02:33:09.094Z,81.30
2023-01-30T02:36:05.947Z,80.98
2023-01-30T02:39:02.893Z,81.09
2023-01-30T02:41:49.246Z,81.38
2023-01-30T02:44:30.601Z,81.60
2023-01-30T02:47:08.577Z,81.75
2023-01-30T02:49:42.623Z,81.60
2023-01-30T02:52:12.984Z,81.85
2023-01-30T02:54:40.855Z,82.57
2023-01-30T02:57:24.962Z,82.75
2023-01-30T02:59:58.815Z,82.55
2023-01-30T03:02:44.948Z,83.05
2023-01-30T03:05:31.289Z,83.43
2023-01-30T03:08:14.601Z,82.97
2023-01-30T03:11:01.679Z,83.25
2023-01-30T03:13:41.667Z,83.64
2023-01-30T03:16:22.226Z,83.34
2023-01-30T03:18:53.107Z,83.52
2023-01-30T03:21:20.518Z,83.52
2023-01-30T03:23:48.244Z,83.56
2023-01-30T03:26:25.212Z,83.29
2023-01-30T03:28:53.527Z,83.78
2023-01-30T03:31:20.942Z,84.21
2023-01-30T03:33:48.174Z,84.34
2023-01-30T03:36:15.837Z,84.40
2023-01-30T03:38:43.222Z,84.47
2023-01-30T03:41:10.939Z,84.87
2023-01-30T03:43:39.824Z,84.75
2023-01-30T03:46:06.919Z,85.04
2023-01-30T03:48:34.457Z,84.84
2023-01-30T03:51:01.720Z,84.75
2023-01-30T03:53:29.881Z,85.09
2023-01-30T03:55:57.382Z,84.91
2023-01-30T07:57:06.500Z,100.00
2023-01-30T07:59:32.767Z,100.00
2023-01-30T08:02:00.017Z,100.00
2023-01-30T08:04:37.702Z,100.00
2023-01-30T08:07:17.682Z,100.00
2023-01-30T08:09:48.427Z,100.00
2023-01-30T08:12:23.384Z,100.00
2023-01-30T08:14:54.760Z,97.80
2023-01-30T08:17:28.217Z,96.93
2023-01-30T08:20:01.521Z,98.31
2023-01-30T08:22:33.035Z,99.36
2023-01-30T08:25:08.569Z,98.51
2023-01-30T08:27:39.900Z,99.78
2023-01-30T08:30:11.796Z,99.62
2023-01-30T08:32:39.225Z,100.00
2023-01-30T08:35:07.232Z,100.00
2023-01-30T08:37:35.680Z,100.00
2023-01-30T08:40:03.335Z,100.00
2023-01-30T08:42:31.631Z,100.00
2023-01-30T08:45:00.336Z,100.00
2023-01-30T08:47:40.499Z,100.00
2023-01-30T08:50:17.476Z,100.00
2023-01-30T08:52:48.162Z,100.00
2023-01-30T08:55:25.735Z,100.00
2023-01-30T08:58:04.973Z,100.00
2023-01-30T09:00:39.184Z,100.00
2023-01-30T09:03:11.713Z,100.00
2023-01-30T09:05:50.136Z,100.00
2023-01-30T09:08:26.474Z,100.00
2023-01-30T09:11:05.707Z,100.00
2023-01-30T09:13:35.350Z,100.00
2023-01-30T09:16:04.766Z,100.00
2023-01-30T09:18:34.570Z,100.00
2023-01-30T09:21:07.673Z,100.00
2023-01-30T09:23:39.824Z,100.00
2023-01-30T09:26:13.717Z,100.00
2023-01-30T09:28:43.537Z,100.00
2023-01-30T09:31:15.695Z,100.00
2023-01-30T09:33:50.697Z,100.00
2023-01-30T09:36:24.309Z,100.00
2023-01-30T09:38:56.996Z,100.00
2023-01-30T09:41:33.342Z,100.00
2023-01-30T09:44:13.033Z,100.00
2023-01-30T09:46:47.289Z,100.00
2023-01-30T09:49:31.188Z,100.00
2023-01-30T09:52:04.784Z,100.00
2023-01-30T09:54:40.030Z,100.00
2023-01-30T09:57:27.314Z,100.00
2023-01-30T10:00:02.218Z,100.00
2023-01-30T10:02:51.608Z,100.00
2023-01-30T10:05:20.493Z,100.00
2023-01-30T10:08:22.094Z,100.00
2023-01-30T10:11:09.688Z,100.00
2023-01-30T10:14:16.795Z,100.00
2023-01-30T10:17:04.681Z,100.00
2023-01-30T10:20:05.333Z,100.00
2023-01-30T10:22:44.490Z,100.00
2023-01-30T10:25:56.610Z,100.00
2023-01-30T10:28:45.742Z,100.00
2023-01-30T10:31:21.902Z,100.00
2023-01-30T10:34:04.276Z,100.00
2023-01-30T10:37:11.693Z,100.00
2023-01-30T10:40:15.312Z,100.00
2023-01-30T10:42:51.785Z,100.00
2023-01-30T10:45:28.897Z,100.00
2023-01-30T10:48:17.298Z,100.00
2023-01-30T10:51:17.871Z,100.00
2023-01-30T10:53:50.849Z,100.00
2023-01-30T10:56:44.120Z,100.00
2023-01-30T10:59:48.894Z,100.00
2023-01-30T11:02:26.004Z,99.34
2023-01-30T11:05:00.129Z,99.46
2023-01-30T11:07:34.765Z,99.64
2023-01-30T11:10:02.818Z,99.38
2023-01-30T11:12:30.863Z,99.75
2023-01-30T11:15:04.806Z,100.00
2023-01-30T11:17:37.780Z,100.00
2023-01-30T11:20:13.985Z,99.01
2023-01-30T11:23:05.478Z,98.91
2023-01-30T11:26:10.146Z,98.26
2023-01-30T11:28:45.926Z,98.28
2023-01-30T11:31:40.731Z,98.52
2023-01-30T11:34:16.463Z,98.00
2023-01-30T11:36:47.654Z,97.27
2023-01-30T11:39:16.657Z,96.88
2023-01-30T16:01:21.783Z,100.00
2023-01-30T16:03:58.660Z,100.00
2023-01-30T16:06:37.147Z,100.00
2023-01-30T16:09:26.700Z,100.00
2023-01-30T16:11:58.060Z,100.00
2023-01-30T16:14:32.013Z,100.00
2023-01-30T16:17:06.205Z,100.00
2023-01-30T16:19:37.614Z,100.00
2023-01-30T16:22:17.313Z,100.00
2023-01-30T16:24:48.038Z,100.00
2023-01-30T16:27:32.351Z,100.00
2023-01-30T16:30:16.707Z,100.00
2023-01-30T16:32:44.014Z,100.00
2023-01-30T16:35:27.521Z,100.00
2023-01-30T16:37:57.779Z,100.00
2023-01-30T16:40:31.027Z,100.00
2023-01-30T16:43:03.111Z,100.00
2023-01-30T16:45:36.302Z,100.00
2023-01-30T16:48:25.584Z,99.69
2023-01-30T16:50:58.384Z,99.77
2023-01-30T16:53:27.351Z,99.89
2023-01-30T16:56:09.869Z,99.73
2023-01-30T16:58:38.732Z,99.71
2023-01-30T17:01:08.795Z,99.67
2023-01-30T17:03:39.173Z,99.36
2023-01-30T17:06:16.507Z,99.61
2023-01-30T17:08:48.717Z,99.42
2023-01-30T17:11:38.959Z,99.26
2023-01-30T17:14:31.730Z,98.79
2023-01-30T17:17:04.462Z,98.64
2023-01-30T17:19:31.571Z,98.51
2023-01-30T17:22:01.398Z,98.74
2023-01-30T17:24:29.122Z,98.79
2023-01-30T17:27:02.757Z,98.67
2023-01-30T17:29:46.777Z,98.27
2023-01-30T17:32:16.041Z,98.49
2023-01-30T17:34:43.182Z,98.24
2023-01-30T17:37:20.450Z,98.17
2023-01-30T17:39:48.405Z,98.11
2023-01-30T17:42:22.345Z,97.91
2023-01-30T17:44:51.067Z,97.76
2023-01-30T17:47:18.545Z,97.79
2023-01-30T17:49:45.490Z,98.06
2023-01-30T17:52:14.132Z,97.80
2023-01-30T17:54:40.988Z,97.53
2023-01-30T17:57:10.340Z,97.66
2023-01-30T17:59:37.270Z,97.36
2023-01-30T18:02:04.399Z,97.81
2023-01-30T18:04:31.661Z,97.90
2023-01-30T18:07:06.514Z,98.31
2023-01-30T18:09:34.752Z,98.38
2023-01-30T18:12:02.517Z,98.85
2023-01-30T18:14:29.912Z,100.00
2023-01-30T18:17:00.491Z,100.00
2023-01-30T18:19:31.580Z,99.96
2023-01-30T18:21:58.686Z,99.92
2023-01-30T18:24:26.186Z,100.00
2023-01-30T18:26:53.575Z,100.00
2023-01-30T18:29:20.716Z,100.00
2023-01-30T18:31:47.838Z,100.00
2023-01-30T18:34:14.958Z,100.00
2023-01-30T18:36:42.997Z,100.00
2023-01-30T18:39:17.508Z,100.00
2023-01-30T18:41:44.589Z,100.00
2023-01-30T18:44:11.473Z,100.00
2023-01-30T18:46:41.762Z,100.00
2023-01-30T18:49:09.275Z,100.00
2023-01-30T18:51:36.124Z,100.00
2023-01-30T18:54:03.288Z,100.00
2023-01-30T18:56:32.728Z,100.00
2023-01-30T18:59:04.552Z,100.00
2023-01-30T19:01:34.797Z,100.00
2023-01-30T19:04:08.066Z,100.00
2023-01-30T19:06:37.965Z,100.00
2023-01-30T19:09:09.493Z,100.00
2023-01-30T19:11:58.373Z,100.00
2023-01-30T19:14:25.332Z,100.00
2023-01-30T19:16:53.157Z,100.00
2023-01-30T19:19:20.250Z,100.00
2023-01-30T19:21:49.879Z,100.00
2023-01-30T19:24:31.050Z,100.00
2023-01-30T19:26:59.720Z,100.00
2023-01-30T19:29:26.834Z,100.00
2023-01-30T19:31:54.015Z,100.00
2023-01-30T19:34:21.570Z,100.00
2023-01-30T19:36:48.509Z,100.00
2023-01-30T19:39:16.037Z,100.00
2023-01-30T19:41:49.743Z,100.00
2023-01-30T19:44:16.863Z,100.00
2023-01-30T19:46:44.405Z,100.00
2023-01-30T19:49:13.272Z,100.00
2023-01-30T22:21:38.770Z,100.00
2023-01-30T22:24:07.960Z,100.00
2023-01-30T22:26:34.480Z,100.00
2023-01-30T22:29:10.138Z,100.00
2023-01-30T22:31:41.823Z,100.00
2023-01-30T22:34:10.294Z,100.00
2023-01-30T22:36:39.574Z,100.00
2023-01-30T22:39:08.088Z,100.00
2023-01-30T22:41:39.904Z,100.00
2023-01-30T22:44:12.635Z,100.00
2023-01-30T22:46:42.132Z,100.00
2023-01-30T22:49:10.659Z,100.00
2023-01-30T22:51:40.534Z,100.00
2023-01-30T22:54:11.593Z,100.00
2023-01-30T22:56:45.095Z,100.00
2023-01-30T22:59:13.188Z,100.00
2023-01-30T23:01:43.727Z,100.00
2023-01-30T23:04:18.771Z,100.00
2023-01-30T23:06:47.337Z,100.00
2023-01-30T23:09:19.420Z,100.00
2023-01-30T23:12:12.787Z,100.00
2023-01-30T23:14:41.161Z,100.00
2023-01-30T23:17:27.909Z,100.00
2023-01-30T23:19:56.099Z,100.00
2023-01-30T23:22:23.989Z,100.00
2023-01-30T23:24:52.766Z,100.00
2023-01-30T23:27:21.809Z,100.00
2023-01-30T23:29:49.922Z,100.00
2023-01-30T23:32:20.257Z,100.00
2023-01-30T23:34:48.304Z,100.00
2023-01-30T23:37:16.490Z,100.00
2023-01-30T23:39:45.278Z,100.00
2023-01-30T23:42:13.163Z,100.00
2023-01-30T23:44:42.094Z,100.00
2023-01-30T23:47:10.676Z,100.00
2023-01-30T23:49:39.824Z,100.00
2023-01-30T23:52:08.634Z,100.00
2023-01-30T23:54:36.346Z,100.00
2023-01-30T23:57:03.933Z,100.00
2023-01-30T23:59:31.156Z,100.00
